Monkton, Maryland
Current Conditions -  °F | °C
As of 3:09 AM on Wednesday 26 Nov 2014 (Local Time) from KMTN Reporting Station
Clear Clear  
Wind Chill: 45°   Ceiling: Unl
Heat Index: 45°   Visibility: 10mi
Dew Point: 37°   Wind: 3mph
Humidity: 76%   Direction: 330°NNW
Pressure: 30.12"   Gusts: NA
Location:  39.58°N, 76.61°W
Report Text: KMTN 260809Z AUTO 33003KT 10SM CLR 07/03 A3012 RMK AO2
Loading
Personal Weather Stations






























Interactive Weather Map New forecast layout! Learn more

10-Day Weather Forecast

Advertisements
Track Severe Weather on mobile